createdAt,value
2019-03-22T00:00:24.323Z,99703.59
2019-03-22T00:02:53.045Z,99704.19
2019-03-22T00:05:21.762Z,99701.14
2019-03-22T00:07:50.485Z,99698.09
2019-03-22T00:10:19.238Z,99701.41
2019-03-22T00:12:47.961Z,99702.07
2019-03-22T00:15:16.680Z,99705.09
2019-03-22T00:17:45.387Z,99703.57
2019-03-22T00:20:14.334Z,99703.55
2019-03-22T00:22:43.047Z,99704.71
2019-03-22T00:25:11.742Z,99713.92
2019-03-22T00:27:40.454Z,99712.06
2019-03-22T00:30:10.270Z,99707.46
2019-03-22T00:32:39.031Z,99708.14
2019-03-22T00:35:08.940Z,99709.03
2019-03-22T00:37:37.652Z,99705.41
2019-03-22T00:40:10.959Z,99704.00
2019-03-22T00:42:39.662Z,99712.14
2019-03-22T00:45:09.605Z,99715.88
2019-03-22T00:47:38.309Z,99716.14
2019-03-22T00:50:08.964Z,99716.95
2019-03-22T00:52:37.735Z,99713.14
2019-03-22T00:55:07.007Z,99709.31
2019-03-22T00:57:35.758Z,99706.45
2019-03-22T01:00:07.237Z,99707.55
2019-03-22T01:02:35.947Z,99699.81
2019-03-22T01:05:07.570Z,99699.02
2019-03-22T01:07:36.289Z,99691.83
2019-03-22T01:10:13.274Z,99697.64
2019-03-22T01:12:41.992Z,99700.72
2019-03-22T01:15:13.560Z,99708.58
2019-03-22T01:17:42.958Z,99708.38
2019-03-22T01:20:12.618Z,99714.41
2019-03-22T01:22:42.415Z,99705.94
2019-03-22T01:25:12.130Z,99708.21
2019-03-22T01:27:41.534Z,99705.95
2019-03-22T01:30:15.796Z,99700.25
2019-03-22T01:32:44.523Z,99698.77
2019-03-22T01:35:13.774Z,99697.77
2019-03-22T01:37:42.484Z,99697.13
2019-03-22T01:40:12.691Z,99701.88
2019-03-22T01:42:41.409Z,99698.79
2019-03-22T01:45:12.392Z,99698.97
2019-03-22T01:47:41.137Z,99692.48
2019-03-22T01:50:12.946Z,99703.71
2019-03-22T01:52:41.655Z,99706.77
2019-03-22T01:55:10.517Z,99701.73
2019-03-22T01:57:39.223Z,99692.36
2019-03-22T02:00:10.939Z,99693.02
2019-03-22T02:02:39.693Z,99697.03
2019-03-22T02:05:08.609Z,99688.87
2019-03-22T02:07:37.319Z,99693.84
2019-03-22T02:10:08.765Z,99691.44
2019-03-22T02:12:37.441Z,99693.73
2019-03-22T02:15:09.115Z,99691.75
2019-03-22T02:17:37.822Z,99697.80
2019-03-22T02:20:08.903Z,99700.59
2019-03-22T02:22:37.622Z,99697.56
2019-03-22T02:25:07.657Z,99703.94
2019-03-22T02:27:36.473Z,99697.25
2019-03-22T02:30:08.288Z,99695.75
2019-03-22T02:32:36.997Z,99697.63
2019-03-22T02:35:07.418Z,99698.43
2019-03-22T02:37:36.131Z,99698.75
2019-03-22T02:40:07.194Z,99702.02
2019-03-22T02:42:35.910Z,99699.37
2019-03-22T02:45:07.319Z,99711.81
2019-03-22T02:47:36.036Z,99705.48
2019-03-22T02:50:18.137Z,99710.62
2019-03-22T02:52:40.582Z,99713.80
2019-03-22T02:55:10.700Z,99712.47
2019-03-22T02:57:39.411Z,99714.25
2019-03-22T03:00:11.297Z,99711.19
2019-03-22T03:02:40.019Z,99718.66
2019-03-22T03:05:10.062Z,99714.72
2019-03-22T03:07:38.877Z,99716.89
2019-03-22T03:10:10.852Z,99718.98
2019-03-22T03:12:39.579Z,99722.53
2019-03-22T03:15:13.472Z,99715.74
2019-03-22T03:17:42.235Z,99723.62
2019-03-22T03:20:13.857Z,99714.34
2019-03-22T03:22:42.561Z,99719.86
2019-03-22T03:25:11.370Z,99717.98
2019-03-22T03:27:40.076Z,99714.98
2019-03-22T03:30:17.930Z,99711.27
2019-03-22T03:32:46.675Z,99710.09
2019-03-22T03:35:15.807Z,99703.92
2019-03-22T03:37:44.507Z,99703.78
2019-03-22T03:40:14.893Z,99698.15
2019-03-22T03:42:43.653Z,99693.63
2019-03-22T03:45:31.894Z,99697.25
2019-03-22T03:48:02.249Z,99692.34
2019-03-22T03:50:30.954Z,99695.34
2019-03-22T03:52:59.666Z,99692.48
2019-03-22T03:55:29.177Z,99690.58
2019-03-22T03:57:58.088Z,99688.46
2019-03-22T04:00:26.860Z,99686.20
2019-03-22T04:02:55.611Z,99687.06
2019-03-22T04:05:24.874Z,99686.88
2019-03-22T04:07:57.013Z,99690.76
2019-03-22T04:10:25.739Z,99697.58
2019-03-22T04:12:56.948Z,99702.70
2019-03-22T04:15:25.654Z,99705.45
2019-03-22T04:17:54.361Z,99706.17
2019-03-22T04:20:23.088Z,99716.63
2019-03-22T04:22:51.802Z,99713.72
2019-03-22T04:25:20.579Z,99709.34
2019-03-22T04:27:49.325Z,99715.65
2019-03-22T04:30:18.032Z,99714.52
2019-03-22T04:32:46.745Z,99712.11
2019-03-22T04:35:15.451Z,99716.71
2019-03-22T04:37:44.211Z,99722.76
2019-03-22T04:40:27.238Z,99721.15
2019-03-22T04:43:02.159Z,99718.08
2019-03-22T04:45:32.066Z,99718.16
2019-03-22T04:48:12.946Z,99711.89
2019-03-22T04:50:43.986Z,99720.91
2019-03-22T04:53:15.952Z,99726.53
2019-03-22T04:55:47.796Z,99720.98
2019-03-22T04:58:19.414Z,99727.75
2019-03-22T05:00:49.374Z,99734.43
2019-03-22T05:03:19.507Z,99734.75
2019-03-22T05:05:50.461Z,99731.77
2019-03-22T05:08:21.166Z,99739.75
2019-03-22T05:10:50.008Z,99741.34
2019-03-22T05:13:21.126Z,99741.84
2019-03-22T05:15:50.752Z,99745.73
2019-03-22T05:18:20.084Z,99745.00
2019-03-22T05:20:50.094Z,99743.16
2019-03-22T05:23:21.862Z,99741.22
2019-03-22T05:25:52.610Z,99753.02
2019-03-22T05:28:21.614Z,99750.69
2019-03-22T05:31:05.178Z,99745.51
2019-03-22T05:33:33.887Z,99742.17
2019-03-22T05:36:02.605Z,99741.27
2019-03-22T05:38:31.310Z,99742.39
2019-03-22T05:41:00.017Z,99746.73
2019-03-22T05:43:28.734Z,99742.22
2019-03-22T05:45:57.451Z,99743.33
2019-03-22T05:48:26.154Z,99745.48
2019-03-22T05:50:54.993Z,99750.48
2019-03-22T05:53:23.702Z,99750.88
2019-03-22T05:55:52.415Z,99757.36
2019-03-22T05:58:21.130Z,99749.36
2019-03-22T06:00:49.839Z,99745.56
2019-03-22T06:03:18.603Z,99747.03
2019-03-22T06:05:47.311Z,99748.28
2019-03-22T06:08:16.021Z,99745.89
2019-03-22T06:10:44.743Z,99743.25
2019-03-22T06:13:13.452Z,99744.43
2019-03-22T06:15:42.229Z,99740.95
2019-03-22T06:18:10.937Z,99735.84
2019-03-22T06:20:39.651Z,99735.13
2019-03-22T06:23:08.375Z,99730.34
2019-03-22T06:25:37.264Z,99738.77
2019-03-22T06:28:05.979Z,99740.19
2019-03-22T06:30:34.699Z,99738.48
2019-03-22T06:33:03.425Z,99742.63
2019-03-22T06:35:32.133Z,99736.38
2019-03-22T06:38:00.873Z,99729.84
2019-03-22T06:40:29.583Z,99730.53
2019-03-22T06:42:58.343Z,99729.70
2019-03-22T06:45:27.052Z,99729.28
2019-03-22T06:47:55.770Z,99725.86
2019-03-22T06:50:24.502Z,99728.95
2019-03-22T06:52:53.204Z,99728.74
2019-03-22T06:55:21.924Z,99728.61
2019-03-22T06:57:50.653Z,99721.44
2019-03-22T07:00:19.365Z,99717.44
2019-03-22T07:02:48.121Z,99724.11
2019-03-22T07:05:16.832Z,99715.23
2019-03-22T07:07:45.545Z,99716.39
2019-03-22T07:10:14.267Z,99708.41
2019-03-22T07:12:43.081Z,99706.02
2019-03-22T07:15:11.933Z,99712.66
2019-03-22T07:17:40.652Z,99711.28
2019-03-22T07:20:09.563Z,99713.88
2019-03-22T07:22:38.290Z,99715.92
2019-03-22T07:25:08.105Z,99720.64
2019-03-22T07:27:36.829Z,99715.23
2019-03-22T07:30:18.099Z,99716.06
2019-03-22T07:32:38.910Z,99715.42
2019-03-22T07:35:07.970Z,99716.20
2019-03-22T07:37:37.322Z,99709.46
2019-03-22T07:40:08.517Z,99711.13
2019-03-22T07:42:37.219Z,99711.16
2019-03-22T07:45:07.971Z,99706.88
2019-03-22T07:47:36.686Z,99705.91
2019-03-22T07:50:10.217Z,99701.52
2019-03-22T07:52:38.943Z,99701.77
2019-03-22T07:55:08.063Z,99707.33
2019-03-22T07:57:36.778Z,99705.81
2019-03-22T08:00:08.511Z,99700.52
2019-03-22T08:02:37.314Z,99700.41
2019-03-22T08:05:07.618Z,99696.81
2019-03-22T08:07:36.327Z,99697.11
2019-03-22T08:10:06.976Z,99696.12
2019-03-22T08:12:35.660Z,99693.61
2019-03-22T08:15:08.194Z,99683.62
2019-03-22T08:17:35.939Z,99685.12
2019-03-22T08:20:06.177Z,99681.26
2019-03-22T08:22:34.890Z,99680.31
2019-03-22T08:25:03.607Z,99691.52
2019-03-22T08:27:32.370Z,99685.98
2019-03-22T08:30:01.115Z,99680.21
2019-03-22T08:32:29.805Z,99675.88
2019-03-22T08:34:59.504Z,99676.54
2019-03-22T08:37:28.218Z,99678.19
2019-03-22T08:39:57.056Z,99674.60
2019-03-22T08:42:25.781Z,99671.73
2019-03-22T08:44:57.064Z,99671.15
2019-03-22T08:47:33.946Z,99664.73
2019-03-22T08:49:57.187Z,99659.05
2019-03-22T08:52:25.893Z,99661.52
2019-03-22T08:54:54.653Z,99660.92
2019-03-22T08:57:24.994Z,99654.69
2019-03-22T08:59:53.920Z,99652.67
2019-03-22T09:02:22.706Z,99653.47
2019-03-22T09:04:51.394Z,99646.47
2019-03-22T09:07:20.132Z,99646.05
2019-03-22T09:09:48.837Z,99641.85
2019-03-22T09:12:17.531Z,99638.02
2019-03-22T09:14:46.267Z,99635.26
2019-03-22T09:17:14.963Z,99631.46
2019-03-22T09:19:44.617Z,99619.64
2019-03-22T09:22:13.319Z,99624.94
2019-03-22T09:24:42.033Z,99625.45
2019-03-22T09:27:10.756Z,99623.79
2019-03-22T09:29:39.517Z,99613.09
2019-03-22T09:32:08.267Z,99610.97
2019-03-22T09:34:37.009Z,99611.44
2019-03-22T09:37:08.637Z,99609.10
2019-03-22T09:39:36.167Z,99602.67
2019-03-22T09:42:04.986Z,99600.70
2019-03-22T09:44:43.132Z,99594.89
2019-03-22T09:47:04.265Z,99600.88
2019-03-22T09:49:33.023Z,99600.10
2019-03-22T09:52:01.753Z,99594.21
2019-03-22T09:54:30.463Z,99595.72
2019-03-22T09:57:00.038Z,99585.05
2019-03-22T09:59:28.786Z,99588.81
2019-03-22T10:01:57.829Z,99584.83
2019-03-22T10:04:26.562Z,99585.52
2019-03-22T10:06:55.271Z,99580.48
2019-03-22T10:09:24.049Z,99574.92
2019-03-22T10:11:52.747Z,99576.77
2019-03-22T10:14:21.627Z,99573.20
2019-03-22T10:16:50.370Z,99573.14
2019-03-22T10:19:19.088Z,99571.63
2019-03-22T10:21:47.814Z,99561.19
2019-03-22T10:24:16.529Z,99557.73
2019-03-22T10:26:45.270Z,99552.73
2019-03-22T10:29:14.007Z,99552.21
2019-03-22T10:31:42.746Z,99549.48
2019-03-22T10:34:11.421Z,99548.86
2019-03-22T10:36:40.189Z,99549.20
2019-03-22T10:39:09.604Z,99544.27
2019-03-22T10:41:38.356Z,99537.80
2019-03-22T10:44:07.067Z,99531.86
2019-03-22T10:46:35.809Z,99524.78
2019-03-22T10:49:04.543Z,99520.39
2019-03-22T10:51:33.265Z,99510.95
2019-03-22T10:54:01.990Z,99504.27
2019-03-22T10:56:30.688Z,99507.39
2019-03-22T10:58:59.795Z,99499.83
2019-03-22T11:01:28.512Z,99494.34
2019-03-22T11:03:57.450Z,99492.20
2019-03-22T11:06:26.717Z,99493.22
2019-03-22T11:08:55.648Z,99496.70
2019-03-22T11:11:24.370Z,99490.22
2019-03-22T11:13:53.092Z,99479.45
2019-03-22T11:16:21.848Z,99480.19
2019-03-22T11:18:50.567Z,99469.98
2019-03-22T11:21:19.285Z,99463.64
2019-03-22T11:23:48.009Z,99469.80
2019-03-22T11:26:16.716Z,99467.47
2019-03-22T11:28:45.472Z,99458.19
2019-03-22T11:31:14.188Z,99450.22
2019-03-22T11:33:42.904Z,99453.15
2019-03-22T11:36:11.627Z,99444.13
2019-03-22T11:38:40.335Z,99435.47
2019-03-22T11:41:09.091Z,99432.19
2019-03-22T11:43:37.810Z,99425.55
2019-03-22T11:46:06.526Z,99421.19
2019-03-22T11:48:35.247Z,99420.47
2019-03-22T11:51:03.962Z,99419.61
2019-03-22T11:53:32.731Z,99417.11
2019-03-22T11:56:01.487Z,99412.09
2019-03-22T11:58:30.202Z,99399.41
2019-03-22T12:00:59.824Z,99405.27
2019-03-22T12:03:28.537Z,99401.73
2019-03-22T12:05:57.302Z,99399.86
2019-03-22T12:08:26.024Z,99400.85
2019-03-22T12:10:54.742Z,99397.82
2019-03-22T12:13:23.459Z,99401.70
2019-03-22T12:15:52.167Z,99387.89
2019-03-22T12:18:20.934Z,99394.84
2019-03-22T12:20:49.652Z,99385.30
2019-03-22T12:23:18.362Z,99382.77
2019-03-22T12:25:47.080Z,99379.41
2019-03-22T12:28:15.797Z,99379.11
2019-03-22T12:30:44.570Z,99372.39
2019-03-22T12:33:13.284Z,99375.59
2019-03-22T12:35:42.691Z,99370.69
2019-03-22T12:38:11.393Z,99361.67
2019-03-22T12:40:40.108Z,99365.02
2019-03-22T12:43:08.865Z,99362.51
2019-03-22T12:45:37.574Z,99357.47
2019-03-22T12:48:06.291Z,99360.87
2019-03-22T12:50:35.017Z,99354.61
2019-03-22T12:53:03.723Z,99352.56
2019-03-22T12:55:32.479Z,99343.52
2019-03-22T12:58:01.185Z,99333.34
2019-03-22T13:00:29.898Z,99328.30
2019-03-22T13:02:58.616Z,99325.36
2019-03-22T13:05:27.435Z,99325.18
2019-03-22T13:07:57.387Z,99324.98
2019-03-22T13:10:28.100Z,99326.70
2019-03-22T13:12:56.911Z,99321.29
2019-03-22T13:15:25.633Z,99309.33
2019-03-22T13:17:54.339Z,99309.34
2019-03-22T13:20:23.105Z,99304.35
2019-03-22T13:22:51.821Z,99297.92
2019-03-22T13:25:21.326Z,99302.20
2019-03-22T13:27:50.258Z,99293.56
2019-03-22T13:30:24.522Z,99290.36
2019-03-22T13:32:53.232Z,99289.17
2019-03-22T13:35:22.005Z,99275.55
2019-03-22T13:37:50.715Z,99272.23
2019-03-22T13:40:19.425Z,99270.40
2019-03-22T13:42:48.170Z,99263.92
2019-03-22T13:45:16.886Z,99271.69
2019-03-22T13:47:45.576Z,99262.58
2019-03-22T13:50:14.325Z,99253.16
2019-03-22T13:52:43.049Z,99253.07
2019-03-22T13:55:11.759Z,99255.64
2019-03-22T13:57:40.510Z,99248.30
2019-03-22T14:00:11.718Z,99244.66
2019-03-22T14:02:40.432Z,99243.95
2019-03-22T14:05:09.451Z,99242.91
2019-03-22T14:07:38.171Z,99236.84
2019-03-22T14:10:27.939Z,99242.95
2019-03-22T14:12:56.748Z,99239.90
2019-03-22T14:15:25.459Z,99232.14
2019-03-22T14:17:58.076Z,99229.64
2019-03-22T14:20:26.784Z,99230.85
2019-03-22T14:22:55.496Z,99224.43
2019-03-22T14:25:24.221Z,99225.92
2019-03-22T14:27:53.542Z,99225.48
2019-03-22T14:30:22.325Z,99223.70
2019-03-22T14:32:51.092Z,99217.09
2019-03-22T14:35:19.811Z,99225.98
2019-03-22T14:37:48.537Z,99227.47
2019-03-22T14:40:17.290Z,99216.92
2019-03-22T14:42:46.007Z,99209.06
2019-03-22T14:45:14.900Z,99209.53
2019-03-22T14:47:43.666Z,99206.52
2019-03-22T14:50:12.374Z,99206.03
2019-03-22T14:52:41.079Z,99208.26
2019-03-22T14:55:10.128Z,99203.52
2019-03-22T14:57:48.372Z,99199.75
2019-03-22T15:00:11.875Z,99200.81
2019-03-22T15:02:40.639Z,99202.58
2019-03-22T15:05:10.151Z,99200.75
2019-03-22T15:07:38.862Z,99207.91
2019-03-22T15:10:12.863Z,99213.40
2019-03-22T15:12:41.577Z,99208.08
2019-03-22T15:15:12.854Z,99207.64
2019-03-22T15:17:49.275Z,99205.42
2019-03-22T15:20:19.550Z,99207.45
2019-03-22T15:22:49.838Z,99208.97
2019-03-22T15:25:25.874Z,99205.86
2019-03-22T15:27:58.742Z,99205.45
2019-03-22T15:30:29.041Z,99203.19
2019-03-22T15:32:59.381Z,99204.31
2019-03-22T15:35:32.675Z,99208.21
2019-03-22T15:38:09.349Z,99209.83
2019-03-22T15:40:38.060Z,99208.36
2019-03-22T15:43:06.787Z,99209.55
2019-03-22T15:45:35.542Z,99209.45
2019-03-22T15:48:04.356Z,99208.64
2019-03-22T15:50:33.071Z,99205.42
2019-03-22T15:53:02.881Z,99209.70
2019-03-22T15:55:31.597Z,99206.51
2019-03-22T15:58:00.356Z,99216.02
2019-03-22T16:00:29.069Z,99209.89
2019-03-22T16:02:57.806Z,99208.14
2019-03-22T16:05:26.573Z,99211.45
2019-03-22T16:07:55.292Z,99208.27
2019-03-22T16:10:24.008Z,99207.42
2019-03-22T16:12:52.766Z,99209.47
2019-03-22T16:15:21.483Z,99205.25
2019-03-22T16:17:50.203Z,99204.09
2019-03-22T16:20:19.089Z,99205.57
2019-03-22T16:22:47.815Z,99212.67
2019-03-22T16:25:16.822Z,99213.77
2019-03-22T16:27:45.571Z,99208.64
2019-03-22T16:30:15.384Z,99206.86
2019-03-22T16:32:44.208Z,99202.27
2019-03-22T16:35:13.192Z,99204.97
2019-03-22T16:37:41.912Z,99202.27
2019-03-22T16:40:12.742Z,99192.48
2019-03-22T16:42:41.450Z,99199.45
2019-03-22T16:45:11.566Z,99201.74
2019-03-22T16:47:40.327Z,99190.31
2019-03-22T16:50:11.952Z,99190.60
2019-03-22T16:52:40.674Z,99194.19
2019-03-22T16:55:11.794Z,99188.34
2019-03-22T16:57:40.507Z,99185.67
2019-03-22T17:00:11.042Z,99185.81
2019-03-22T17:02:39.761Z,99186.05
2019-03-22T17:05:08.992Z,99191.05
2019-03-22T17:07:37.724Z,99188.88
2019-03-22T17:10:07.664Z,99185.73
2019-03-22T17:12:36.407Z,99186.17
2019-03-22T17:15:06.732Z,99187.41
2019-03-22T17:17:35.451Z,99176.41
2019-03-22T17:20:06.375Z,99183.21
2019-03-22T17:22:35.097Z,99181.02
2019-03-22T17:25:04.559Z,99190.38
2019-03-22T17:27:33.273Z,99185.59
2019-03-22T17:30:01.980Z,99188.08
2019-03-22T17:32:30.737Z,99179.77
2019-03-22T17:34:59.456Z,99183.33
2019-03-22T17:37:28.176Z,99190.64
2019-03-22T17:39:57.705Z,99192.27
2019-03-22T17:42:26.438Z,99189.79
2019-03-22T17:44:55.153Z,99184.30
2019-03-22T17:47:23.940Z,99184.96
2019-03-22T17:49:52.657Z,99185.70
2019-03-22T17:52:21.392Z,99188.48
2019-03-22T17:54:50.165Z,99184.81
2019-03-22T17:57:19.169Z,99188.94
2019-03-22T17:59:47.898Z,99185.63
2019-03-22T18:02:16.655Z,99182.52
2019-03-22T18:04:45.380Z,99185.74
2019-03-22T18:07:14.100Z,99193.13
2019-03-22T18:09:42.884Z,99196.51
2019-03-22T18:12:11.621Z,99195.17
2019-03-22T18:14:40.574Z,99194.16
2019-03-22T18:17:09.350Z,99197.91
2019-03-22T18:19:38.088Z,99206.32
2019-03-22T18:22:06.808Z,99212.73
2019-03-22T18:24:35.583Z,99209.66
2019-03-22T18:27:04.298Z,99212.20
2019-03-22T18:29:33.026Z,99209.59
2019-03-22T18:32:02.757Z,99207.73
2019-03-22T18:34:34.677Z,99210.63
2019-03-22T18:37:01.926Z,99206.69
2019-03-22T18:39:30.700Z,99215.38
2019-03-22T18:41:59.411Z,99213.44
2019-03-22T18:44:28.130Z,99211.20
2019-03-22T18:46:57.750Z,99211.20
2019-03-22T18:49:26.465Z,99211.81
2019-03-22T18:51:55.176Z,99215.75
2019-03-22T18:54:23.924Z,99219.28
2019-03-22T18:56:52.637Z,99222.16
2019-03-22T18:59:21.358Z,99221.71
2019-03-22T19:01:50.117Z,99222.24
2019-03-22T19:04:18.825Z,99217.53
2019-03-22T19:06:48.030Z,99215.83
2019-03-22T19:09:16.795Z,99213.19
2019-03-22T19:11:45.507Z,99216.64
2019-03-22T19:14:14.220Z,99216.10
2019-03-22T19:16:42.977Z,99209.94
2019-03-22T19:19:11.696Z,99220.91
2019-03-22T19:21:40.415Z,99214.77
2019-03-22T19:24:09.187Z,99220.62
2019-03-22T19:26:37.899Z,99221.05
2019-03-22T19:29:06.610Z,99218.70
2019-03-22T19:31:35.452Z,99223.77
2019-03-22T19:34:04.170Z,99223.77
2019-03-22T19:36:32.887Z,99226.31
2019-03-22T19:39:01.642Z,99222.52
2019-03-22T19:41:30.350Z,99222.80
2019-03-22T19:43:59.071Z,99222.88
2019-03-22T19:46:27.819Z,99218.67
2019-03-22T19:48:56.532Z,99217.06
2019-03-22T19:51:25.250Z,99222.20
2019-03-22T19:53:54.010Z,99219.30
2019-03-22T19:56:22.727Z,99219.30
2019-03-22T19:58:51.446Z,99220.66
2019-03-22T20:01:20.210Z,99221.50
2019-03-22T20:03:48.924Z,99227.16
2019-03-22T20:06:17.629Z,99230.60
2019-03-22T20:08:46.387Z,99229.47
2019-03-22T20:11:15.108Z,99230.19
2019-03-22T20:13:43.824Z,99231.03
2019-03-22T20:16:12.604Z,99226.73
2019-03-22T20:18:41.368Z,99227.98
2019-03-22T20:21:10.089Z,99229.78
2019-03-22T20:23:38.846Z,99227.30
2019-03-22T20:26:07.560Z,99233.43
2019-03-22T20:28:36.274Z,99234.23
2019-03-22T20:31:05.004Z,99229.05
2019-03-22T20:33:33.724Z,99237.67
2019-03-22T20:36:02.501Z,99245.59
2019-03-22T20:38:31.206Z,99236.33
2019-03-22T20:40:59.918Z,99240.67
2019-03-22T20:43:28.680Z,99243.92
2019-03-22T20:45:58.712Z,99249.26
2019-03-22T20:48:27.506Z,99248.63
2019-03-22T20:50:56.208Z,99251.84
2019-03-22T20:53:24.926Z,99248.16
2019-03-22T20:55:53.648Z,99249.28
2019-03-22T20:58:22.376Z,99247.78
2019-03-22T21:00:51.161Z,99252.02
2019-03-22T21:03:19.886Z,99249.73
2019-03-22T21:05:48.639Z,99250.21
2019-03-22T21:08:17.349Z,99249.23
2019-03-22T21:10:46.054Z,99242.25
2019-03-22T21:13:14.824Z,99242.55
2019-03-22T21:15:43.540Z,99242.33
2019-03-22T21:18:12.246Z,99242.44
2019-03-22T21:20:41.006Z,99241.08
2019-03-22T21:23:09.718Z,99241.47
2019-03-22T21:25:38.458Z,99240.81
2019-03-22T21:28:07.209Z,99248.58
2019-03-22T21:30:35.920Z,99252.05
2019-03-22T21:33:04.653Z,99250.77
2019-03-22T21:35:37.598Z,99248.52
2019-03-22T21:38:10.918Z,99254.55
2019-03-22T21:40:34.347Z,99244.44
2019-03-22T21:43:03.119Z,99243.53
2019-03-22T21:45:31.833Z,99249.51
2019-03-22T21:48:00.550Z,99250.05
2019-03-22T21:50:29.315Z,99261.70
2019-03-22T21:52:58.023Z,99261.84
2019-03-22T21:55:26.737Z,99259.69
2019-03-22T21:58:00.476Z,99258.74
2019-03-22T22:00:29.187Z,99252.47
2019-03-22T22:02:57.894Z,99256.82
2019-03-22T22:05:26.651Z,99249.12
2019-03-22T22:07:55.370Z,99253.05
2019-03-22T22:10:24.080Z,99241.52
2019-03-22T22:12:52.848Z,99244.60
2019-03-22T22:15:21.564Z,99246.35
2019-03-22T22:17:50.279Z,99246.35
2019-03-22T22:20:28.367Z,99242.02
2019-03-22T22:22:49.477Z,99244.05
2019-03-22T22:25:18.192Z,99243.00
2019-03-22T22:27:46.943Z,99245.58
2019-03-22T22:30:15.761Z,99245.13
2019-03-22T22:32:44.479Z,99244.40
2019-03-22T22:35:13.252Z,99240.30
2019-03-22T22:37:41.966Z,99245.75
2019-03-22T22:40:12.680Z,99246.65
2019-03-22T22:42:41.398Z,99240.41
2019-03-22T22:45:11.315Z,99240.49
2019-03-22T22:47:40.058Z,99243.65
2019-03-22T22:50:12.394Z,99245.03
2019-03-22T22:52:41.100Z,99243.42
2019-03-22T22:55:10.315Z,99248.59
2019-03-22T22:57:39.031Z,99248.13
2019-03-22T23:00:17.915Z,99244.82
2019-03-22T23:02:46.624Z,99245.95
2019-03-22T23:05:15.343Z,99235.32
2019-03-22T23:07:44.131Z,99243.34
2019-03-22T23:10:12.927Z,99247.91
2019-03-22T23:12:41.893Z,99248.19
2019-03-22T23:15:12.115Z,99247.70
2019-03-22T23:17:40.830Z,99250.00
2019-03-22T23:20:10.947Z,99246.63
2019-03-22T23:22:39.713Z,99257.97
2019-03-22T23:25:09.326Z,99259.88
2019-03-22T23:27:38.236Z,99261.96
2019-03-22T23:30:12.079Z,99258.55
2019-03-22T23:32:41.093Z,99248.20
2019-03-22T23:35:09.799Z,99250.79
2019-03-22T23:37:38.555Z,99250.50
2019-03-22T23:40:07.861Z,99249.94
2019-03-22T23:42:36.572Z,99253.36
2019-03-22T23:45:07.530Z,99255.67
2019-03-22T23:47:36.239Z,99255.67
2019-03-22T23:50:07.893Z,99251.95
2019-03-22T23:52:36.658Z,99259.77
2019-03-22T23:55:08.603Z,99255.83
2019-03-22T23:57:37.337Z,99259.77
